ENHD/HAU METAR and TAF weather

Enter ICAO airport designator
Station Type Date Time Source
ENHD METAR 2019/02/23 16:50 UTC NOAA

ENHD 231650Z 15019KT 3800 BR OVC006 07/06 Q1032


Station Type Date Time Source
ENHD Decoded METAR 2019/02/23 16:50 UTC NOAA

Haugesund / Karmoy, Norway (ENHD) 59-21N 005-13E 24M
Feb 23, 2019 - 11:50 AM EST / 2019.02.23 1650 UTC
Wind: from the SSE (150 degrees) at 22 MPH (19 KT):0
Visibility: 2 mile(s):0
Sky conditions: overcast
Weather: mist
Temperature: 44 F (7 C)
Dew Point: 42 F (6 C)
Relative Humidity: 93%
Pressure (altimeter): 30.47 in. Hg (1032 hPa)
ob: ENHD 231650Z 15019KT 3800 BR OVC006 07/06 Q1032
cycle: 17

Station Type Date Time Source
ENHD TAF UTC NOAA

Error!


Example: see airport list